M I D A S
Marine Information and Data Acquisition System
Tripno 1478 of the Zeeleeuw from 2008-02-07 07:33:22 to 2008-02-07 17:20:09
Back to CruiseResearch ActivitiesStationsMapUnderway DataData graphs

EquipmentUnitsComment
TimeDGPSUTC
LatitudeDGPSDM.mWGS84
LongitudeDGPSDM.mWGS84
TemperatureSBE03/SBE38deg celciusITS90
ConductivitySBE21S/mITS90
SalinitySBE21 Practical Salinity Units
ChlorophylAChelsea fluorimeterg/lCalibrated in Aceton
Missing or incorrect values are displayed as -999
Sea surface data collected by the RV Zeeleeuw from 2008-02-07 07:30:23 to 2008-02-07 17:30:04
Time Latitude Longitude Temperature Conductivity Salinity ChlorophylA
2008-02-07 07:31:28 51°13.672 2°55.911 -999 0.263183 1.418268 -1.801521
2008-02-07 07:32:28 51°13.679 2°55.873 -999 0.263183 1.418662 -1.801521
2008-02-07 07:33:28 51°13.711 2°55.787 -999 0.26308 1.418366 -1.801521
2008-02-07 07:34:29 51°13.764 2°55.694 -999 0.26308 1.418656 -1.801521
2008-02-07 07:35:28 51°13.841 2°55.637 -999 0.26308 1.418945 -1.801521
2008-02-07 07:36:28 51°13.916 2°55.652 -999 0.262977 1.418597 -1.801521
2008-02-07 07:37:28 51°13.939 2°55.65 -999 0.262977 1.41886 -1.801521
2008-02-07 07:38:28 51°13.98 2°55.571 -999 0.262874 1.418485 -1.801521
2008-02-07 07:39:27 51°14.073 2°55.469 -999 0.262874 1.418801 -1.801521
2008-02-07 07:40:28 51°14.188 2°55.353 -999 0.262874 1.418985 -1.801521
2008-02-07 07:41:27 51°14.298 2°55.187 -999 0.262771 1.418452 -1.801521
2008-02-07 07:42:26 51°14.399 2°54.968 -999 0.262771 1.418742 -1.801521
2008-02-07 07:43:25 51°14.514 2°54.721 -999 0.262771 1.419032 -1.801521
2008-02-07 07:44:25 51°14.627 2°54.436 -999 0.262668 1.418709 -1.801521
2008-02-07 07:45:25 51°14.739 2°54.146 -999 0.262668 1.418999 -1.801521
2008-02-07 07:46:24 51°14.845 2°53.863 -999 0.262668 1.419342 -1.801521
2008-02-07 07:47:25 51°14.954 2°53.57 -999 0.262668 1.419633 -1.801521
2008-02-07 07:48:25 51°15.063 2°53.279 -999 0.262565 1.419283 -1.801521
2008-02-07 07:49:24 51°15.17 2°52.991 -999 0.262565 1.4196 -1.801521
2008-02-07 07:50:25 51°15.283 2°52.695 -999 0.262565 1.419864 -1.801521
2008-02-07 07:51:26 51°15.391 2°52.391 -999 0.440781 2.476761 -1.627401
2008-02-07 07:52:25 51°15.451 2°52.058 -999 3.435662 31.408608 0.670986
2008-02-07 07:53:25 51°15.483 2°51.706 -999 3.441782 32.114317 0.949579
2008-02-07 07:54:25 51°15.471 2°51.346 -999 3.451727 32.260333 0.810283
2008-02-07 07:55:25 51°15.45 2°50.986 -999 3.454524 32.289355 0.70581
2008-02-07 07:56:25 51°15.435 2°50.624 -999 3.461258 32.349344 0.670986
2008-02-07 07:57:25 51°15.42 2°50.262 -999 3.465609 32.380097 0.775459
2008-02-07 07:58:25 51°15.402 2°49.901 -999 3.469545 32.388543 0.845107
2008-02-07 07:59:26 51°15.387 2°49.536 -999 3.472134 32.383931 0.879931
2008-02-07 08:00:25 51°15.371 2°49.184 -999 3.480733 32.4541 0.949579
2008-02-07 08:01:26 51°15.359 2°48.821 -999 3.481354 32.447948 0.845107
2008-02-07 08:02:25 51°15.344 2°48.472 -999 3.486016 32.487207 0.914755
2008-02-07 08:03:25 51°15.328 2°48.124 -999 3.496894 32.581773 0.949579
2008-02-07 08:04:25 51°15.311 2°47.778 -999 3.500416 32.59297 0.984403
2008-02-07 08:05:26 51°15.295 2°47.424 -999 3.506943 32.646039 0.914755
2008-02-07 08:06:25 51°15.282 2°47.078 -999 3.508808 32.659004 0.949579
2008-02-07 08:07:25 51°15.269 2°46.723 -999 3.511605 32.6798 0.984403
2008-02-07 08:08:26 51°15.258 2°46.359 -999 3.515542 32.712371 0.949579
2008-02-07 08:09:26 51°15.248 2°45.998 -999 3.51492 32.696912 0.984403
2008-02-07 08:10:26 51°15.235 2°45.637 -999 3.515024 32.684442 0.914755
2008-02-07 08:11:25 51°15.222 2°45.282 -999 3.514195 32.681293 0.914755
2008-02-07 08:12:26 51°15.209 2°44.914 -999 3.510362 32.685915 0.984403
2008-02-07 08:13:25 51°15.196 2°44.557 -999 3.502903 32.67472 1.019227
2008-02-07 08:14:25 51°15.18 2°44.194 -999 3.502904 32.6874 0.879931
2008-02-07 08:15:25 51°15.164 2°43.836 -999 3.510155 32.69462 0.810283
2008-02-07 08:16:25 51°15.147 2°43.48 -999 3.516992 32.696654 0.70581
2008-02-07 08:17:25 51°15.169 2°43.132 -999 3.521033 32.721233 0.636162
2008-02-07 08:18:25 51°15.219 2°42.792 -999 3.519997 32.712341 0.70581
2008-02-07 08:19:26 51°15.267 2°42.445 -999 3.519686 32.702816 0.775459
2008-02-07 08:20:25 51°15.31 2°42.113 -999 3.521136 32.708768 0.810283
2008-02-07 08:21:26 51°15.369 2°41.778 -999 3.52155 32.70493 0.879931
2008-02-07 08:22:25 51°15.476 2°41.493 -999 3.524244 32.725509 0.984403
2008-02-07 08:23:25 51°15.597 2°41.218 -999 3.526213 32.744015 1.088875
2008-02-07 08:24:26 51°15.717 2°40.933 -999 3.52787 32.758411 1.158523
2008-02-07 08:25:26 51°15.838 2°40.656 -999 3.525073 32.721435 1.158523
2008-02-07 08:26:25 51°15.954 2°40.377 -999 3.532429 32.797316 1.019227
2008-02-07 08:27:25 51°16.069 2°40.088 -999 3.535434 32.827413 0.879931
2008-02-07 08:28:26 51°16.187 2°39.794 -999 3.538231 32.851753 0.879931
2008-02-07 08:29:25 51°16.309 2°39.521 -999 3.56589 32.656197 0.462042
2008-02-07 08:30:25 51°16.436 2°39.245 -999 3.788594 33.215167 0.670986
2008-02-07 08:31:25 51°16.562 2°38.97 -999 3.56983 32.90253 0.879931
2008-02-07 08:32:26 51°16.685 2°38.684 -999 3.555429 32.878942 0.879931
2008-02-07 08:33:25 51°16.803 2°38.408 -999 3.556362 32.885822 0.914755
2008-02-07 08:34:25 51°16.935 2°38.119 -999 3.552632 32.869115 0.879931
2008-02-07 08:35:26 51°17.062 2°37.828 -999 3.551078 32.84953 0.810283
2008-02-07 08:36:25 51°17.184 2°37.546 -999 3.553461 32.886661 1.123699
2008-02-07 08:37:26 51°17.31 2°37.256 -999 3.551699 32.864936 1.088875
2008-02-07 08:38:26 51°17.43 2°36.969 -999 3.552735 32.835051 0.984403
2008-02-07 08:39:25 51°17.55 2°36.686 -999 3.561852 32.862089 0.845107
2008-02-07 08:40:26 51°17.674 2°36.398 -999 3.569105 32.859203 0.845107
2008-02-07 08:41:25 51°17.794 2°36.121 -999 3.578948 32.915961 0.845107
2008-02-07 08:42:26 51°17.92 2°35.839 -999 3.577704 32.881749 0.984403
2008-02-07 08:43:26 51°18.066 2°35.692 -999 3.583921 32.934518 0.879931
2008-02-07 08:44:25 51°18.217 2°35.639 -999 3.578637 32.87964 0.879931
2008-02-07 08:45:25 51°18.342 2°35.751 -999 3.580605 32.895273 0.740634
2008-02-07 08:46:26 51°18.456 2°35.904 -999 3.582056 32.912776 0.775459
2008-02-07 08:47:25 51°18.551 2°36.072 -999 3.581849 32.892757 0.810283
2008-02-07 08:48:25 51°18.62 2°36.179 -999 3.58734 32.940766 0.670986
2008-02-07 08:49:26 51°18.663 2°36.235 -999 3.588169 32.950125 0.670986
2008-02-07 08:50:25 51°18.675 2°36.274 -999 3.587755 32.943206 0.601338
2008-02-07 08:51:25 51°18.675 2°36.279 -999 3.589206 32.953536 0.496866
2008-02-07 08:52:26 51°18.688 2°36.302 -999 3.590035 32.969169 0.636162
2008-02-07 08:53:25 51°18.698 2°36.298 -999 3.58734 32.947038 0.462042
2008-02-07 08:54:25 51°18.706 2°36.286 -999 3.588895 32.971877 0.496866
2008-02-07 08:55:26 51°18.713 2°36.271 -999 3.587962 32.962351 0.53169
2008-02-07 08:56:26 51°18.723 2°36.251 -999 3.590449 32.990446 0.53169
2008-02-07 08:57:23 51°13.643 2°55.871 -999 0.263903 1.414086 -1.801521
2008-02-07 08:57:46 51°18.734 2°36.215 -999 3.58703 32.959103 0.496866
2008-02-07 08:58:45 51°18.741 2°36.183 -999 3.58589 32.957324 0.53169
2008-02-07 08:59:45 51°18.745 2°36.149 -999 3.581124 32.90952 0.636162
2008-02-07 09:00:46 51°18.747 2°36.115 -999 3.58589 32.952839 0.53169
2008-02-07 09:01:46 51°18.745 2°36.087 -999 3.586097 32.954956 0.496866
2008-02-07 09:02:46 51°18.742 2°36.062 -999 3.586719 32.971179 0.53169
2008-02-07 09:03:46 51°18.739 2°36.038 -999 3.585372 32.960104 0.566514
2008-02-07 09:04:46 51°18.742 2°35.993 -999 3.585579 32.961325 0.670986
2008-02-07 09:05:45 51°18.79 2°35.959 -999 3.58102 32.909357 0.566514
2008-02-07 09:06:45 51°18.857 2°36.051 -999 3.58361 32.92955 0.496866
2008-02-07 09:07:45 51°19.004 2°36.062 -999 3.587548 32.976958 0.18345
2008-02-07 09:08:45 51°19.196 2°35.993 -999 3.587444 32.975899 0.35757
2008-02-07 09:09:45 51°19.393 2°35.934 -999 3.585683 32.947135 0.462042
2008-02-07 09:10:45 51°19.587 2°35.882 -999 3.586304 32.940937 0.462042
2008-02-07 09:11:45 51°19.782 2°35.827 -999 3.587859 32.950536 0.427218
2008-02-07 09:12:45 51°19.978 2°35.758 -999 3.590449 32.974298 0.496866
2008-02-07 09:13:45 51°20.173 2°35.691 -999 3.587444 32.931079 0.670986
2008-02-07 09:14:45 51°20.365 2°35.606 -999 3.593557 32.980033 0.601338
2008-02-07 09:15:45 51°20.543 2°35.442 -999 3.596044 33.005411 0.427218
2008-02-07 09:16:45 51°20.705 2°35.226 -999 3.596563 33.009802 0.462042
2008-02-07 09:17:45 51°20.862 2°35 -999 3.599464 33.035823 0.636162
2008-02-07 09:18:44 51°20.995 2°34.737 -999 3.601847 33.061943 0.53169
2008-02-07 09:19:45 51°21.109 2°34.437 -999 3.603091 33.075535 0.601338
2008-02-07 09:20:45 51°21.175 2°34.099 -999 3.604542 33.089445 0.496866
2008-02-07 09:21:44 51°21.22 2°33.758 -999 3.611691 33.117455 0.636162
2008-02-07 09:22:45 51°21.28 2°33.417 -999 3.61708 33.138243 0.496866
2008-02-07 09:23:45 51°21.347 2°33.088 -999 3.620395 33.151366 0.392394
2008-02-07 09:24:44 51°21.445 2°32.795 -999 3.618737 33.131788 0.462042
2008-02-07 09:25:45 51°21.592 2°32.567 -999 3.617908 33.117965 0.636162
2008-02-07 09:26:45 51°21.783 2°32.526 -999 3.619773 33.129778 0.70581
2008-02-07 09:27:44 51°21.974 2°32.548 -999 3.623815 33.167329 0.670986
2008-02-07 09:28:45 51°22.171 2°32.554 -999 3.626095 33.190538 0.392394
2008-02-07 09:29:45 51°22.368 2°32.554 -999 3.627131 33.204684 0.218274
2008-02-07 09:30:45 51°22.564 2°32.552 -999 3.628168 33.217035 0.113802
2008-02-07 09:31:45 51°22.761 2°32.547 -999 3.626924 33.214265 0.044153
2008-02-07 09:32:45 51°22.957 2°32.543 -999 3.63138 33.249752 0.044153
2008-02-07 09:33:45 51°23.153 2°32.538 -999 3.633867 33.266978 -0.060319
2008-02-07 09:34:45 51°23.348 2°32.534 -999 3.640395 33.282118 -0.129967
2008-02-07 09:35:45 51°23.545 2°32.539 -999 3.654385 33.303835 -0.129967
2008-02-07 09:36:45 51°23.738 2°32.57 -999 3.660084 33.31678 -0.025495
2008-02-07 09:37:45 51°23.933 2°32.599 -999 3.662778 33.324358 -0.164791
2008-02-07 09:38:45 51°24.127 2°32.634 -999 3.666405 33.332416 -0.164791
2008-02-07 09:39:45 51°24.323 2°32.664 -999 3.668996 33.342513 -0.199615
2008-02-07 09:40:45 51°24.514 2°32.714 -999 3.671276 33.350355 -0.164791
2008-02-07 09:41:46 51°24.71 2°32.765 -999 3.673245 33.361312 -0.164791
2008-02-07 09:42:45 51°24.9 2°32.818 -999 3.673556 33.360875 -0.129967
2008-02-07 09:43:45 51°25.093 2°32.876 -999 3.675007 33.371065 -0.129967
2008-02-07 09:44:45 51°25.287 2°32.94 -999 3.676354 33.373048 -0.129967
2008-02-07 09:45:45 51°25.482 2°32.997 -999 3.678012 33.381748 -0.129967
2008-02-07 09:46:45 51°25.674 2°33.065 -999 3.678841 33.383861 -0.129967
2008-02-07 09:47:45 51°25.847 2°33.191 -999 3.680914 33.390482 0.009329
2008-02-07 09:48:44 51°26.027 2°33.287 -999 3.682987 33.397994 -0.025495
2008-02-07 09:49:45 51°26.212 2°33.4 -999 3.685578 33.411623 0.009329
2008-02-07 09:50:46 51°26.404 2°33.476 -999 3.687754 33.419277 -0.025495
2008-02-07 09:51:45 51°26.597 2°33.5 -999 3.689723 33.425729 -0.025495
2008-02-07 09:52:45 51°26.782 2°33.579 -999 3.691589 33.432921 -0.060319
2008-02-07 09:53:45 51°26.909 2°33.808 -999 3.693972 33.447118 0.009329
2008-02-07 09:54:45 51°27.066 2°33.991 -999 3.693765 33.446816 0.009329
2008-02-07 09:55:45 51°27.236 2°34.139 -999 3.693247 33.44338 0.078977
2008-02-07 09:56:45 51°27.416 2°34.257 -999 3.692625 33.444262 0.078977
2008-02-07 09:57:45 51°27.597 2°34.372 -999 3.691692 33.442009 0.113802
2008-02-07 09:58:45 51°27.782 2°34.477 -999 3.689309 33.431381 0.113802
2008-02-07 09:59:45 51°27.968 2°34.577 -999 3.688169 33.428822 0.113802
2008-02-07 10:00:45 51°28.158 2°34.647 -999 3.688583 33.431216 0.009329
2008-02-07 10:01:45 51°28.354 2°34.68 -999 3.690552 33.441242 -0.129967
2008-02-07 10:02:45 51°28.552 2°34.71 -999 3.692107 33.448871 -0.095143
2008-02-07 10:03:45 51°28.745 2°34.757 -999 3.693765 33.449497 -0.129967
2008-02-07 10:04:45 51°28.941 2°34.798 -999 3.697911 33.46893 -0.164791
2008-02-07 10:05:45 51°29.133 2°34.86 -999 3.700294 33.474176 -0.095143
2008-02-07 10:06:45 51°29.327 2°34.909 -999 3.70216 33.48492 0.044153
2008-02-07 10:07:45 51°29.522 2°34.941 -999 3.703922 33.491044 0.009329
2008-02-07 10:08:45 51°29.715 2°34.98 -999 3.703714 33.484492 -0.025495
2008-02-07 10:09:44 51°29.905 2°34.991 -999 3.703092 33.485378 0.009329
2008-02-07 10:10:44 51°30.095 2°34.989 -999 3.702263 33.48507 0.044153
2008-02-07 10:11:45 51°30.291 2°35.013 -999 3.700916 33.480438 0.218274
2008-02-07 10:12:45 51°30.483 2°35.033 -999 3.699465 33.479228 0.18345
2008-02-07 10:13:45 51°30.679 2°35.037 -999 3.6976 33.47116 0.078977
2008-02-07 10:14:45 51°30.872 2°35.038 -999 3.697082 33.472196 0.18345
2008-02-07 10:15:44 51°31.058 2°35.062 -999 3.696771 33.473533 0.322746
2008-02-07 10:16:45 51°31.256 2°35.053 -999 3.695631 33.464725 0.18345
2008-02-07 10:17:45 51°31.452 2°35.063 -999 3.696978 33.475622 0.078977
2008-02-07 10:18:45 51°31.647 2°35.073 -999 3.696149 33.46816 -0.025495
2008-02-07 10:19:45 51°31.84 2°35.065 -999 3.696771 33.475322 -0.164791
2008-02-07 10:20:45 51°32.031 2°35.076 -999 3.698325 33.488308 -0.234439
2008-02-07 10:21:45 51°32.227 2°35.099 -999 3.699776 33.502933 -0.234439
2008-02-07 10:22:45 51°32.425 2°35.134 -999 3.700917 33.511739 -0.338911
2008-02-07 10:23:45 51°32.621 2°35.174 -999 3.702264 33.522634 -0.338911
2008-02-07 10:24:44 51°32.806 2°35.262 -999 3.703093 33.526514 -0.338911
2008-02-07 10:25:45 51°32.973 2°35.32 -999 3.704337 33.536362 -0.373735
2008-02-07 10:26:45 51°33.132 2°35.366 -999 3.704751 33.536958 -0.373735
2008-02-07 10:27:45 51°33.236 2°35.384 -999 3.705477 33.54606 -0.373735
2008-02-07 10:28:45 51°33.287 2°35.38 -999 3.705062 33.545465 -0.304087
2008-02-07 10:29:45 51°33.304 2°35.371 -999 3.704544 33.538451 -0.199615
2008-02-07 10:30:45 51°33.309 2°35.364 -999 3.703922 33.533079 -0.199615
2008-02-07 10:31:45 51°33.311 2°35.36 -999 3.706617 33.543219 -0.129967
2008-02-07 10:32:45 51°33.314 2°35.362 -999 3.706099 33.54964 -0.199615
2008-02-07 10:33:45 51°33.315 2°35.366 -999 3.705166 33.547406 -0.164791
2008-02-07 10:34:45 51°33.317 2°35.373 -999 3.705062 33.547257 -0.129967
2008-02-07 10:35:45 51°33.323 2°35.366 -999 3.70527 33.547555 -0.164791
2008-02-07 10:36:46 51°33.383 2°35.268 -999 3.70527 33.546659 -0.234439
2008-02-07 10:37:45 51°33.495 2°35.337 -999 3.705995 33.546804 -0.338911
2008-02-07 10:38:45 51°33.671 2°35.463 -999 3.707135 33.549335 -0.269263
2008-02-07 10:39:45 51°33.848 2°35.605 -999 3.709104 33.556635 -0.269263
2008-02-07 10:40:45 51°34.033 2°35.722 -999 3.711073 33.565723 -0.269263
2008-02-07 10:41:45 51°34.212 2°35.871 -999 3.713561 33.577337 -0.304087
2008-02-07 10:42:45 51°34.396 2°35.996 -999 3.715115 33.584928 -0.304087
2008-02-07 10:43:45 51°34.58 2°36.136 -999 3.717707 33.598469 -0.338911
2008-02-07 10:44:45 51°34.757 2°36.293 -999 3.720712 33.616174 -0.373735
2008-02-07 10:45:45 51°34.936 2°36.447 -999 3.722578 33.628672 -0.373735
2008-02-07 10:46:45 51°35.115 2°36.589 -999 3.723511 33.636263 -0.373735
2008-02-07 10:47:45 51°35.306 2°36.686 -999 3.723407 33.637012 -0.408559
2008-02-07 10:48:45 51°35.497 2°36.774 -999 3.722889 33.636278 -0.338911
2008-02-07 10:49:45 51°35.69 2°36.864 -999 3.722267 33.63271 -0.373735
2008-02-07 10:50:44 51°35.885 2°36.91 -999 3.721749 33.629288 -0.373735
2008-02-07 10:51:45 51°36.082 2°37.009 -999 3.721645 33.629141 -0.338911
2008-02-07 10:52:45 51°36.272 2°37.112 -999 3.721231 33.628553 -0.373735
2008-02-07 10:53:45 51°36.468 2°37.166 -999 3.720091 33.624249 -0.408559
2008-02-07 10:54:45 51°36.666 2°37.237 -999 3.71781 33.615636 -0.408559
2008-02-07 10:55:45 51°36.858 2°37.344 -999 3.71553 33.607914 -0.408559
2008-02-07 10:56:45 51°37.05 2°37.46 -999 3.712628 33.596612 -0.408559
2008-02-07 10:57:45 51°37.244 2°37.567 -999 3.709519 33.585007 -0.338911
2008-02-07 10:58:44 51°37.437 2°37.638 -999 3.706617 33.574585 -0.373735
2008-02-07 10:59:45 51°37.635 2°37.749 -999 3.703715 33.565053 -0.338911
2008-02-07 11:00:45 51°37.775 2°37.988 -999 3.701539 33.555656 -0.304087
2008-02-07 11:01:45 51°37.885 2°38.272 -999 3.69843 33.545813 -0.199615
2008-02-07 11:02:45 51°37.978 2°38.574 -999 3.697186 33.541335 -0.269263
2008-02-07 11:03:45 51°38.118 2°38.793 -999 3.695528 33.537158 -0.304087
2008-02-07 11:04:45 51°38.318 2°38.823 -999 3.69387 33.532081 -0.269263
2008-02-07 11:05:45 51°38.521 2°38.79 -999 3.692315 33.528948 -0.199615
2008-02-07 11:06:45 51°38.721 2°38.731 -999 3.691901 33.531946 -0.129967
2008-02-07 11:07:45 51°38.907 2°38.708 -999 3.692108 33.538537 -0.129967
2008-02-07 11:08:45 51°39.061 2°38.703 -999 3.692834 33.546772 -0.095143
2008-02-07 11:09:45 51°39.2 2°38.675 -999 3.694285 33.556046 -0.164791
2008-02-07 11:10:45 51°39.29 2°38.663 -999 3.695736 33.565319 -0.199615
2008-02-07 11:11:45 51°39.36 2°38.676 -999 3.696979 33.573394 -0.129967
2008-02-07 11:12:45 51°39.402 2°38.703 -999 3.698534 33.580111 -0.164791
2008-02-07 11:13:45 51°39.416 2°38.717 -999 3.698845 33.583254 -0.060319
2008-02-07 11:14:45 51°39.429 2°38.726 -999 3.700814 33.580667 -0.129967
2008-02-07 11:15:45 51°39.442 2°38.734 -999 3.69957 33.585188 -0.060319
2008-02-07 11:16:45 51°39.489 2°38.671 -999 3.699674 33.584436 0.078977
2008-02-07 11:17:46 51°39.607 2°38.489 -999 3.701125 33.591002 -0.199615
2008-02-07 11:18:45 51°39.739 2°38.258 -999 3.704545 33.604863 -0.199615
2008-02-07 11:19:46 51°39.873 2°38.008 -999 3.708069 33.617062 -0.199615
2008-02-07 11:20:45 51°40.009 2°37.776 -999 3.710763 33.623581 -0.234439
2008-02-07 11:21:45 51°40.147 2°37.541 -999 3.712214 33.626537 -0.234439
2008-02-07 11:22:46 51°40.275 2°37.287 -999 3.714494 33.634258 -0.304087
2008-02-07 11:23:46 51°40.42 2°37.061 -999 3.715634 33.634076 -0.304087
2008-02-07 11:24:46 51°40.571 2°36.844 -999 3.716152 33.633913 -0.269263
2008-02-07 11:25:45 51°40.715 2°36.631 -999 3.717396 33.636571 -0.304087
2008-02-07 11:26:46 51°40.875 2°36.428 -999 3.719262 33.6428 -0.304087
2008-02-07 11:27:46 51°41.021 2°36.215 -999 3.721335 33.651113 -0.304087
2008-02-07 11:28:46 51°41.168 2°35.999 -999 3.7232 33.657336 -0.269263
2008-02-07 11:29:45 51°41.297 2°35.764 -999 3.725377 33.667581 -0.269263
2008-02-07 11:30:46 51°41.442 2°35.532 -999 3.727968 33.676611 -0.164791
2008-02-07 11:31:46 51°41.577 2°35.295 -999 3.730559 33.688325 -0.129967
2008-02-07 11:32:45 51°41.714 2°35.067 -999 3.733357 33.701219 -0.164791
2008-02-07 11:33:45 51°41.84 2°34.818 -999 3.736052 33.71127 -0.199615
2008-02-07 11:34:45 51°41.974 2°34.613 -999 3.738851 33.720564 -0.164791
2008-02-07 11:35:46 51°42.079 2°34.443 -999 3.740198 33.72424 -0.164791
2008-02-07 11:36:45 51°42.154 2°34.367 -999 3.741027 33.72719 -0.060319
2008-02-07 11:37:46 51°42.191 2°34.328 -999 3.742064 33.728638 0.078977
2008-02-07 11:38:46 51°42.205 2°34.357 -999 3.741856 33.729244 0.253098
2008-02-07 11:39:49 51°42.217 2°34.396 -999 3.742064 33.729534 0.078977
2008-02-07 11:40:46 51°42.231 2°34.425 -999 3.741649 33.728955 0.148626
2008-02-07 11:41:45 51°42.251 2°34.449 -999 3.741338 33.727625 0.078977
2008-02-07 11:42:45 51°42.348 2°34.311 -999 3.741856 33.729244 0.113802
2008-02-07 11:43:45 51°42.488 2°34.078 -999 3.742271 33.727137 -0.025495
2008-02-07 11:44:45 51°42.638 2°33.852 -999 3.742478 33.723845 -0.129967
2008-02-07 11:45:45 51°42.79 2°33.63 -999 3.742582 33.721304 -0.199615
2008-02-07 11:46:45 51°42.943 2°33.408 -999 3.742582 33.717724 -0.234439
2008-02-07 11:47:45 51°43.111 2°33.212 -999 3.743515 33.720819 -0.164791
2008-02-07 11:48:45 51°43.276 2°33.011 -999 3.744655 33.725992 -0.129967
2008-02-07 11:49:45 51°43.455 2°32.834 -999 3.74652 33.732178 -0.129967
2008-02-07 11:50:45 51°43.618 2°32.629 -999 3.749008 33.741911 -0.129967
2008-02-07 11:51:45 51°43.79 2°32.438 -999 3.751703 33.752821 -0.095143
2008-02-07 11:52:45 51°43.949 2°32.225 -999 3.753154 33.756629 -0.199615
2008-02-07 11:53:45 51°44.133 2°32.059 -999 3.754605 33.762224 -0.199615
2008-02-07 11:54:45 51°44.305 2°31.869 -999 3.75616 33.768854 -0.199615
2008-02-07 11:55:45 51°44.477 2°31.681 -999 3.7573 33.774907 -0.269263
2008-02-07 11:56:45 51°44.654 2°31.497 -999 3.757611 33.774445 -0.304087
2008-02-07 11:57:45 51°44.836 2°31.324 -999 3.758336 33.776346 -0.269263
2008-02-07 11:58:45 51°45.024 2°31.165 -999 3.758233 33.775308 -0.269263
2008-02-07 11:59:45 51°45.198 2°30.976 -999 3.758336 33.773665 -0.338911
2008-02-07 12:00:45 51°45.389 2°30.826 -999 3.759062 33.775565 -0.304087
2008-02-07 12:01:45 51°45.588 2°30.694 -999 3.759062 33.775565 -0.234439
2008-02-07 12:02:45 51°45.778 2°30.54 -999 3.759787 33.776572 -0.304087
2008-02-07 12:03:45 51°45.967 2°30.401 -999 3.759995 33.775967 -0.269263
2008-02-07 12:04:45 51°46.133 2°30.288 -999 3.761031 33.782764 -0.269263
2008-02-07 12:05:45 51°46.284 2°30.151 -999 3.761446 33.783339 -0.269263
2008-02-07 12:06:45 51°46.434 2°30.019 -999 3.762379 33.788205 -0.199615
2008-02-07 12:07:45 51°46.515 2°29.962 -999 3.763415 33.794107 -0.269263
2008-02-07 12:08:48 51°46.536 2°30 -999 3.764556 33.801044 -0.129967
2008-02-07 12:09:48 51°46.555 2°30.042 -999 3.764659 33.800294 -0.164791
2008-02-07 12:10:45 51°46.576 2°30.076 -999 3.764452 33.800007 -0.164791
2008-02-07 12:11:45 51°46.601 2°30.109 -999 3.764348 33.799864 -0.234439
2008-02-07 12:12:45 51°46.626 2°30.138 -999 3.764867 33.801474 -0.234439
2008-02-07 12:13:45 51°46.656 2°30.15 -999 3.765281 33.804727 -0.234439
2008-02-07 12:14:45 51°46.728 2°30.153 -999 3.766214 33.806016 -0.199615
2008-02-07 12:15:45 51°46.762 2°30.293 -999 3.765592 33.800691 -0.199615
2008-02-07 12:16:45 51°46.716 2°30.558 -999 3.766421 33.801837 -0.304087
2008-02-07 12:17:45 51°46.637 2°30.881 -999 3.766525 33.80466 -0.234439
2008-02-07 12:18:45 51°46.551 2°31.201 -999 3.765592 33.799798 -0.199615
2008-02-07 12:19:45 51°46.449 2°31.504 -999 3.765696 33.798155 -0.199615
2008-02-07 12:20:45 51°46.349 2°31.811 -999 3.766214 33.802444 -0.164791
2008-02-07 12:21:45 51°46.228 2°32.09 -999 3.767354 33.808484 -0.199615
2008-02-07 12:22:45 51°46.121 2°32.385 -999 3.767458 33.8122 -0.199615
2008-02-07 12:23:45 51°46.012 2°32.68 -999 3.768183 33.819454 -0.199615
2008-02-07 12:24:45 51°45.909 2°32.982 -999 3.767769 33.815309 -0.164791
2008-02-07 12:25:45 51°45.799 2°33.274 -999 3.76808 33.817524 -0.164791
2008-02-07 12:26:45 51°45.698 2°33.578 -999 3.769324 33.828173 -0.199615
2008-02-07 12:27:45 51°45.6 2°33.884 -999 3.769531 33.829352 -0.164791
2008-02-07 12:28:45 51°45.488 2°34.174 -999 3.769531 33.832033 -0.164791
2008-02-07 12:29:45 51°45.373 2°34.457 -999 3.769946 33.835284 -0.095143
2008-02-07 12:30:45 51°45.251 2°34.734 -999 3.768287 33.824958 -0.129967
2008-02-07 12:31:45 51°45.13 2°35.012 -999 3.766732 33.81924 -0.129967
2008-02-07 12:32:45 51°45.011 2°35.294 -999 3.76497 33.810553 -0.095143
2008-02-07 12:33:45 51°44.901 2°35.592 -999 3.764037 33.809265 -0.060319
2008-02-07 12:34:45 51°44.784 2°35.88 -999 3.762172 33.802217 -0.095143
2008-02-07 12:35:45 51°44.671 2°36.167 -999 3.761239 33.801822 -0.025495
2008-02-07 12:36:45 51°44.565 2°36.471 -999 3.759891 33.799065 0.009329
2008-02-07 12:37:45 51°44.45 2°36.761 -999 3.759062 33.79434 0.044153
2008-02-07 12:38:45 51°44.345 2°37.063 -999 3.758959 33.795091 0.009329
2008-02-07 12:39:45 51°44.225 2°37.345 -999 3.757404 33.78936 0.078977
2008-02-07 12:40:45 51°44.104 2°37.627 -999 3.757093 33.790719 0.078977
2008-02-07 12:41:45 51°44.012 2°37.943 -999 3.756056 33.789284 0.148626
2008-02-07 12:42:45 51°43.918 2°38.257 -999 3.754813 33.783981 0.078977
2008-02-07 12:43:45 51°43.811 2°38.557 -999 3.753465 33.783905 0.113802
2008-02-07 12:44:45 51°43.709 2°38.862 -999 3.750874 33.770461 0.18345
2008-02-07 12:45:45 51°43.605 2°39.167 -999 3.749112 33.76891 0.113802
2008-02-07 12:46:45 51°43.491 2°39.454 -999 3.747557 33.762271 0.148626
2008-02-07 12:47:45 51°43.385 2°39.752 -999 3.745277 33.753723 0.113802
2008-02-07 12:48:45 51°43.279 2°40.05 -999 3.743411 33.748437 0.078977
2008-02-07 12:49:45 51°43.178 2°40.354 -999 3.742168 33.744912 0.044153
2008-02-07 12:50:45 51°43.055 2°40.629 -999 3.741649 33.745983 0.044153
2008-02-07 12:51:45 51°42.942 2°40.921 -999 3.740198 33.73858 0.044153
2008-02-07 12:52:45 51°42.84 2°41.227 -999 3.741235 33.745406 0.044153
2008-02-07 12:53:45 51°42.724 2°41.519 -999 3.74279 33.761024 0.078977
2008-02-07 12:54:45 51°42.627 2°41.83 -999 3.742375 33.75955 0.009329
2008-02-07 12:55:45 51°42.517 2°42.127 -999 3.741546 33.760192 0.044153
2008-02-07 12:56:45 51°42.405 2°42.42 -999 3.739887 33.753399 0.009329
2008-02-07 12:57:45 51°42.293 2°42.715 -999 3.737607 33.744838 0.009329
2008-02-07 12:58:45 51°42.184 2°43.015 -999 3.735638 33.737605 0.009329
2008-02-07 12:59:45 51°42.075 2°43.313 -999 3.733772 33.729614 0.009329
2008-02-07 13:00:45 51°41.964 2°43.607 -999 3.731285 33.718056 -0.025495
2008-02-07 13:01:45 51°41.841 2°43.888 -999 3.729212 33.711563 0.044153
2008-02-07 13:02:45 51°41.727 2°44.179 -999 3.724652 33.693493 0.044153
2008-02-07 13:03:45 51°41.613 2°44.469 -999 3.720817 33.674625 0.044153
2008-02-07 13:04:45 51°41.508 2°44.773 -999 3.717604 33.66291 0.078977
2008-02-07 13:05:45 51°41.395 2°45.063 -999 3.71408 33.645352 0.009329
2008-02-07 13:06:45 51°41.294 2°45.367 -999 3.711903 33.638678 0.044153
2008-02-07 13:07:45 51°41.194 2°45.672 -999 3.708587 33.622292 -0.060319
2008-02-07 13:08:45 51°41.097 2°45.985 -999 3.707343 33.61873 -0.025495
2008-02-07 13:09:45 51°41 2°46.297 -999 3.70838 33.627394 -0.060319
2008-02-07 13:10:45 51°40.896 2°46.602 -999 3.709831 33.641143 -0.025495
2008-02-07 13:11:45 51°40.793 2°46.903 -999 3.710556 33.644868 -0.095143
2008-02-07 13:12:45 51°40.738 2°47.249 -999 3.711385 33.652338 -0.025495
2008-02-07 13:13:45 51°40.638 2°47.555 -999 3.708898 33.637124 0.044153
2008-02-07 13:14:45 51°40.53 2°47.859 -999 3.705167 33.62194 0.044153
2008-02-07 13:15:45 51°40.425 2°48.165 -999 3.702265 33.60882 0.148626
2008-02-07 13:16:45 51°40.366 2°48.362 -999 3.699259 33.595544 0.113802
2008-02-07 13:17:45 51°40.387 2°48.503 -999 3.697498 33.587633 0.253098
2008-02-07 13:18:45 51°40.46 2°48.579 -999 3.696979 33.586894 0.35757
2008-02-07 13:19:45 51°40.519 2°48.554 -999 3.696669 33.588252 0.392394
2008-02-07 13:20:45 51°40.547 2°48.495 -999 3.697394 33.592888 0.35757
2008-02-07 13:21:45 51°40.571 2°48.441 -999 3.697705 33.59153 0.113802
2008-02-07 13:22:45 51°40.597 2°48.439 -999 3.698016 33.592873 0.148626
2008-02-07 13:23:46 51°40.627 2°48.494 -999 3.698223 33.597671 0.670986
2008-02-07 13:24:45 51°40.653 2°48.547 -999 3.69812 33.598424 0.566514
2008-02-07 13:25:45 51°40.681 2°48.6 -999 3.698016 33.598276 0.496866
2008-02-07 13:26:45 51°40.709 2°48.651 -999 3.697912 33.598129 0.496866
2008-02-07 13:27:45 51°40.737 2°48.7 -999 3.698741 33.596607 0.566514
2008-02-07 13:28:45 51°40.767 2°48.745 -999 3.698327 33.60052 0.35757
2008-02-07 13:29:45 51°40.798 2°48.792 -999 3.698016 33.599177 0.218274
2008-02-07 13:30:45 51°40.827 2°48.836 -999 3.698016 33.599177 0.253098
2008-02-07 13:31:45 51°40.86 2°48.85 -999 3.698949 33.599604 0.322746
2008-02-07 13:32:45 51°40.86 2°48.825 -999 3.699052 33.602453 0.218274
2008-02-07 13:33:46 51°40.755 2°48.74 -999 3.699674 33.602436 0.148626
2008-02-07 13:34:46 51°40.621 2°48.589 -999 3.698845 33.597655 0.113802
2008-02-07 13:35:46 51°40.467 2°48.447 -999 3.697809 33.589876 0.113802
2008-02-07 13:36:46 51°40.322 2°48.286 -999 3.696876 33.582245 0.078977
2008-02-07 13:37:46 51°40.179 2°48.116 -999 3.695528 33.574021 0.113802
2008-02-07 13:38:46 51°40.043 2°47.937 -999 3.694492 33.56804 0.148626
2008-02-07 13:39:46 51°39.918 2°47.75 -999 3.693456 33.559358 0.113802
2008-02-07 13:40:46 51°39.786 2°47.564 -999 3.692419 33.553374 0.18345
2008-02-07 13:41:46 51°39.642 2°47.409 -999 3.691486 33.546639 0.218274
2008-02-07 13:42:46 51°39.504 2°47.236 -999 3.690657 33.537353 0.253098
2008-02-07 13:43:46 51°39.366 2°47.063 -999 3.690243 33.53226 0.287922
2008-02-07 13:44:46 51°39.242 2°46.863 -999 3.690761 33.530308 0.35757
2008-02-07 13:45:46 51°39.116 2°46.661 -999 3.692004 33.531196 0.392394
2008-02-07 13:46:46 51°38.985 2°46.467 -999 3.695528 33.538954 0.218274
2008-02-07 13:47:46 51°38.848 2°46.286 -999 3.698533 33.54686 0.18345
2008-02-07 13:48:46 51°38.726 2°46.083 -999 3.703404 33.557431 0.078977
2008-02-07 13:49:46 51°38.603 2°45.877 -999 3.706928 33.569649 -0.025495
2008-02-07 13:50:46 51°38.493 2°45.658 -999 3.710555 33.581107 -0.025495
2008-02-07 13:51:46 51°38.368 2°45.46 -999 3.714701 33.589709 -0.060319
2008-02-07 13:52:46 51°38.255 2°45.244 -999 3.717396 33.596236 -0.095143
2008-02-07 13:53:46 51°38.13 2°45.048 -999 3.718017 33.594437 0.009329
2008-02-07 13:54:46 51°38 2°44.859 -999 3.717914 33.591604 -0.025495
2008-02-07 13:55:46 51°37.858 2°44.695 -999 3.717396 33.587286 0.009329
2008-02-07 13:56:46 51°37.755 2°44.539 -999 3.716877 33.583862 0.113802
2008-02-07 13:57:46 51°37.757 2°44.402 -999 3.715945 33.580741 0.044153
2008-02-07 13:58:46 51°37.731 2°44.242 -999 3.715737 33.57955 -0.025495
2008-02-07 13:59:46 51°37.715 2°44.032 -999 3.715945 33.580741 0.113802
2008-02-07 14:00:46 51°37.697 2°43.814 -999 3.716359 33.581333 0.113802
2008-02-07 14:01:46 51°37.672 2°43.638 -999 3.716463 33.583271 0.113802
2008-02-07 14:02:46 51°37.673 2°43.562 -999 3.716463 33.58506 0.078977
2008-02-07 14:03:46 51°37.701 2°43.511 -999 3.71667 33.586251 0.113802
2008-02-07 14:04:46 51°37.737 2°43.512 -999 3.716981 33.586695 0.148626
2008-02-07 14:05:46 51°37.772 2°43.525 -999 3.717499 33.589224 0.218274
2008-02-07 14:06:46 51°37.806 2°43.547 -999 3.718743 33.589208 0.148626
2008-02-07 14:07:45 51°37.841 2°43.563 -999 3.719157 33.593377 0.113802
2008-02-07 14:08:45 51°37.857 2°43.538 -999 3.718328 33.59309 0.253098
2008-02-07 14:09:45 51°37.878 2°43.531 -999 3.718225 33.593837 0.18345
2008-02-07 14:10:45 51°37.909 2°43.539 -999 3.718432 33.595922 0.322746
2008-02-07 14:11:45 51°37.943 2°43.557 -999 3.72009 33.592918 0.113802
2008-02-07 14:12:45 51°37.98 2°43.58 -999 3.72009 33.600074 0.113802
2008-02-07 14:13:45 51°38.018 2°43.605 -999 3.719158 33.598746 0.148626
2008-02-07 14:14:45 51°38.056 2°43.633 -999 3.71895 33.597556 0.078977
2008-02-07 14:15:45 51°38.096 2°43.658 -999 3.719468 33.600978 0.078977
2008-02-07 14:16:45 51°38.115 2°43.613 -999 3.719779 33.602316 0.253098
2008-02-07 14:17:45 51°38.092 2°43.572 -999 3.720608 33.603496 0.218274
2008-02-07 14:18:45 51°38.059 2°43.545 -999 3.721023 33.60677 0.18345
2008-02-07 14:19:45 51°38.033 2°43.523 -999 3.72123 33.60796 0.287922
2008-02-07 14:20:45 51°38.031 2°43.52 -999 3.720816 33.60737 0.253098
2008-02-07 14:21:45 51°38.04 2°43.519 -999 3.720609 33.60618 0.148626
2008-02-07 14:22:45 51°38.055 2°43.524 -999 3.720401 33.605885 0.218274
2008-02-07 14:23:46 51°38.072 2°43.54 -999 3.720505 33.606033 0.253098
2008-02-07 14:24:46 51°38.072 2°43.566 -999 3.72123 33.608855 0.148626
2008-02-07 14:25:46 51°38.052 2°43.715 -999 3.721334 33.609002 0.287922
2008-02-07 14:26:46 51°38.01 2°43.985 -999 3.720505 33.602454 0.322746
2008-02-07 14:27:46 51°37.957 2°44.31 -999 3.718121 33.589216 0.427218
2008-02-07 14:28:46 51°37.886 2°44.632 -999 3.716152 33.57567 0.496866
2008-02-07 14:29:46 51°37.782 2°44.922 -999 3.71439 33.564206 0.53169
2008-02-07 14:30:46 51°37.687 2°45.221 -999 3.711695 33.547824 0.566514
2008-02-07 14:31:46 51°37.59 2°45.518 -999 3.709933 33.537247 0.566514
2008-02-07 14:32:46 51°37.497 2°45.821 -999 3.710037 33.53829 0.53169
2008-02-07 14:33:46 51°37.39 2°46.108 -999 3.711591 33.544993 0.496866
2008-02-07 14:34:46 51°37.278 2°46.393 -999 3.712835 33.558402 0.462042
2008-02-07 14:35:46 51°37.179 2°46.695 -999 3.71325 33.564363 0.392394
2008-02-07 14:36:46 51°37.074 2°46.993 -999 3.713043 33.567645 0.392394
2008-02-07 14:37:46 51°36.957 2°47.278 -999 3.711073 33.567513 0.392394
2008-02-07 14:38:46 51°36.836 2°47.556 -999 3.70869 33.557832 0.427218
2008-02-07 14:39:46 51°36.709 2°47.818 -999 3.705062 33.540987 0.566514
2008-02-07 14:40:46 51°36.595 2°48.099 -999 3.70102 33.527114 0.53169
2008-02-07 14:41:46 51°36.485 2°48.384 -999 3.700709 33.523083 0.462042
2008-02-07 14:42:46 51°36.375 2°48.663 -999 3.705684 33.540984 0.427218
2008-02-07 14:43:46 51°36.251 2°48.921 -999 3.70755 33.547244 0.462042
2008-02-07 14:44:46 51°36.128 2°49.162 -999 3.707653 33.546497 0.462042
2008-02-07 14:45:46 51°36.047 2°49.375 -999 3.708068 33.547987 0.496866
2008-02-07 14:46:46 51°36.078 2°49.526 -999 3.70755 33.545453 0.427218
2008-02-07 14:47:46 51°36.171 2°49.56 -999 3.707135 33.544858 0.462042
2008-02-07 14:48:46 51°36.262 2°49.646 -999 3.706928 33.541875 0.462042
2008-02-07 14:49:46 51°36.242 2°49.765 -999 3.707135 33.541277 0.462042
2008-02-07 14:50:46 51°36.193 2°49.733 -999 3.707031 33.542024 0.427218
2008-02-07 14:51:46 51°36.15 2°49.682 -999 3.70641 33.541131 0.462042
2008-02-07 14:52:46 51°36.118 2°49.623 -999 3.70641 33.542921 0.427218
2008-02-07 14:53:46 51°36.102 2°49.609 -999 3.706928 33.54277 0.392394
2008-02-07 14:54:46 51°36.102 2°49.612 -999 3.70672 33.544263 0.392394
2008-02-07 14:55:46 51°36.108 2°49.637 -999 3.70672 33.543368 0.35757
2008-02-07 14:56:46 51°36.12 2°49.67 -999 3.706824 33.544412 0.253098
2008-02-07 14:57:46 51°36.095 2°49.707 -999 3.70672 33.544263 0.287922
2008-02-07 14:58:46 51°36.08 2°49.608 -999 3.707239 33.542321 0.496866
2008-02-07 14:59:46 51°36.215 2°49.5 -999 3.707031 33.542919 0.496866
2008-02-07 15:00:46 51°36.361 2°49.699 -999 3.707757 33.544856 0.462042
2008-02-07 15:01:46 51°36.33 2°50.013 -999 3.707757 33.54396 0.496866
2008-02-07 15:02:46 51°36.175 2°50.203 -999 3.707446 33.543514 0.496866
2008-02-07 15:03:46 51°36.002 2°50.34 -999 3.709933 33.540823 0.462042
2008-02-07 15:04:46 51°35.823 2°50.445 -999 3.710037 33.540078 0.427218
2008-02-07 15:05:46 51°35.646 2°50.559 -999 3.712628 33.539332 0.392394
2008-02-07 15:06:46 51°35.467 2°50.662 -999 3.715426 33.538888 0.392394
2008-02-07 15:07:46 51°35.29 2°50.778 -999 3.71439 33.544543 0.427218
2008-02-07 15:08:46 51°35.107 2°50.84 -999 3.711695 33.544248 0.462042
2008-02-07 15:09:46 51°34.92 2°50.868 -999 3.710037 33.541866 0.427218
2008-02-07 15:10:46 51°34.733 2°50.895 -999 3.707964 33.537994 0.462042
2008-02-07 15:11:46 51°34.545 2°50.92 -999 3.705269 33.531436 0.462042
2008-02-07 15:12:46 51°34.356 2°50.928 -999 3.702471 33.518456 0.462042
2008-02-07 15:13:46 51°34.168 2°50.946 -999 3.698636 33.503973 0.462042
2008-02-07 15:14:46 51°33.977 2°50.954 -999 3.694906 33.491416 0.53169
2008-02-07 15:15:46 51°33.787 2°50.962 -999 3.691486 33.476609 0.53169
2008-02-07 15:16:46 51°33.598 2°51.013 -999 3.689724 33.466887 0.566514
2008-02-07 15:17:46 51°33.415 2°51.105 -999 3.689205 33.461655 0.566514
2008-02-07 15:18:46 51°33.237 2°51.221 -999 3.688376 33.458659 0.601338
2008-02-07 15:19:46 51°33.047 2°51.243 -999 3.687962 33.453578 0.670986
2008-02-07 15:20:46 51°32.856 2°51.284 -999 3.687651 33.454917 0.70581
2008-02-07 15:21:46 51°32.667 2°51.285 -999 3.690138 33.465697 0.670986
2008-02-07 15:22:46 51°32.487 2°51.207 -999 3.691382 33.47198 0.636162
2008-02-07 15:23:46 51°32.3 2°51.213 -999 3.687962 33.462536 0.601338
2008-02-07 15:24:46 51°32.113 2°51.29 -999 3.684542 33.447705 0.636162
2008-02-07 15:25:46 51°31.925 2°51.295 -999 3.678531 33.418323 0.70581
2008-02-07 15:26:46 51°31.74 2°51.256 -999 3.671173 33.39051 0.70581
2008-02-07 15:27:46 51°31.551 2°51.248 -999 3.664437 33.366253 0.775459
2008-02-07 15:28:46 51°31.361 2°51.276 -999 3.656976 33.343575 0.775459
2008-02-07 15:29:46 51°31.172 2°51.319 -999 3.648686 33.318724 0.810283
2008-02-07 15:30:46 51°30.984 2°51.324 -999 3.642364 33.296745 0.914755
2008-02-07 15:31:46 51°30.797 2°51.288 -999 3.636976 33.280621 0.949579
2008-02-07 15:32:46 51°30.612 2°51.343 -999 3.632727 33.267978 0.949579
2008-02-07 15:33:46 51°30.426 2°51.344 -999 3.630759 33.262334 0.949579
2008-02-07 15:34:46 51°30.238 2°51.329 -999 3.62879 33.254884 0.914755
2008-02-07 15:35:46 51°30.049 2°51.387 -999 3.627339 33.252713 0.914755
2008-02-07 15:36:46 51°29.858 2°51.377 -999 3.626717 33.248176 0.879931
2008-02-07 15:37:46 51°29.673 2°51.31 -999 3.625474 33.243609 0.879931
2008-02-07 15:38:46 51°29.483 2°51.37 -999 3.623816 33.237517 0.879931
2008-02-07 15:39:46 51°29.29 2°51.41 -999 3.624541 33.234097 0.845107
2008-02-07 15:40:46 51°29.099 2°51.389 -999 3.624334 33.238294 0.879931
2008-02-07 15:41:46 51°28.908 2°51.46 -999 3.623505 33.237051 0.845107
2008-02-07 15:42:46 51°28.717 2°51.518 -999 3.623712 33.235558 0.810283
2008-02-07 15:43:46 51°28.528 2°51.478 -999 3.624438 33.231237 0.810283
2008-02-07 15:44:46 51°28.337 2°51.502 -999 0.077714 0.544502 -1.731873
2008-02-07 15:45:46 51°28.151 2°51.594 -999 0.053323 0.368086 -1.731873
2008-02-07 15:46:46 51°27.96 2°51.628 -999 0.050236 0.345674 -1.731873
2008-02-07 15:47:46 51°27.774 2°51.555 -999 0.047766 0.327973 -1.731873
2008-02-07 15:48:46 51°27.584 2°51.55 -999 0.043547 0.2977 -1.731873
2008-02-07 15:49:46 51°27.395 2°51.515 -999 0.044885 0.306682 -1.731873
2008-02-07 15:50:46 51°27.217 2°51.416 -999 0.044782 0.306027 -1.731873
2008-02-07 15:51:46 51°27.026 2°51.41 -999 0.036137 0.244917 -1.731873
2008-02-07 15:52:46 51°26.835 2°51.47 -999 0.038195 0.258684 -1.731873
2008-02-07 15:53:46 51°26.639 2°51.489 -999 0.04118 0.27962 -1.731873
2008-02-07 15:54:46 51°26.444 2°51.491 -999 0.036446 0.246136 -1.731873
2008-02-07 15:55:46 51°26.255 2°51.586 -999 0.035623 0.239765 -1.731873
2008-02-07 15:56:46 51°26.061 2°51.621 -999 0.037475 0.252842 -1.731873
2008-02-07 15:57:46 51°25.866 2°51.625 -999 0.033256 0.223745 -1.731873
2008-02-07 15:58:46 51°25.675 2°51.71 -999 0.030992 0.207533 -1.766697
2008-02-07 15:59:46 51°25.48 2°51.744 -999 0.02986 0.199552 -1.731873
2008-02-07 16:00:46 51°25.288 2°51.809 -999 0.028831 0.192374 -1.731873
2008-02-07 16:01:46 51°25.097 2°51.886 -999 0.026978 0.179471 -1.731873
2008-02-07 16:02:46 51°24.903 2°51.894 -999 0.02986 0.198892 -1.731873
2008-02-07 16:03:46 51°24.708 2°51.87 -999 0.03058 0.203619 -1.731873
2008-02-07 16:04:46 51°24.512 2°51.858 -999 0.031403 0.209299 -1.731873
2008-02-07 16:05:45 51°24.321 2°51.909 -999 0.031712 0.210954 -1.731873
2008-02-07 16:06:46 51°24.123 2°51.893 -999 0.030683 0.204088 -1.766697
2008-02-07 16:07:46 51°23.932 2°51.853 -999 0.03058 0.203558 -1.731873
2008-02-07 16:08:46 51°23.743 2°51.927 -999 0.029551 0.195619 -1.731873
2008-02-07 16:09:46 51°23.563 2°52.047 -999 0.034388 0.228828 -1.731873
2008-02-07 16:10:46 51°23.417 2°52.212 -999 0.028007 0.184969 -1.731873
2008-02-07 16:11:46 51°23.346 2°52.522 -999 0.032741 0.217047 -1.731873
2008-02-07 16:12:45 51°23.276 2°52.83 -999 0.03058 0.202267 -1.731873
2008-02-07 16:13:46 51°23.189 2°53.139 -999 0.029139 0.192326 -1.731873
2008-02-07 16:14:46 51°23.079 2°53.415 -999 0.032124 0.212414 -1.731873
2008-02-07 16:15:46 51°22.904 2°53.559 -999 0.036858 0.24453 -1.731873
2008-02-07 16:16:46 51°22.716 2°53.655 -999 0.026464 0.173379 -1.766697
2008-02-07 16:17:46 51°22.521 2°53.711 -999 0.03058 0.201162 -1.731873
2008-02-07 16:18:46 51°22.32 2°53.727 -999 0.027904 0.18286 -1.731873
2008-02-07 16:19:46 51°22.122 2°53.676 -999 0.029448 0.193158 -1.731873
2008-02-07 16:20:46 51°21.921 2°53.665 -999 0.028831 0.189022 -1.766697
2008-02-07 16:21:46 51°21.727 2°53.625 -999 0.026258 0.171395 -1.766697
2008-02-07 16:22:46 51°21.533 2°53.616 -999 0.029345 0.191967 -1.731873
2008-02-07 16:23:46 51°21.348 2°53.504 -999 0.033359 0.219074 -1.766697
2008-02-07 16:24:46 51°21.155 2°53.48 -999 0.025332 0.165101 -1.731873
2008-02-07 16:25:46 51°20.96 2°53.527 -999 0.036652 0.240807 -1.731873
2008-02-07 16:26:46 51°20.764 2°53.486 -999 0.026978 0.175784 -1.731873
2008-02-07 16:27:46 51°20.565 2°53.491 -999 0.026875 0.174784 -1.731873
2008-02-07 16:28:46 51°20.37 2°53.407 -999 0.026978 0.175359 -1.731873
2008-02-07 16:29:46 51°20.171 2°53.376 -999 0.024817 0.16063 -1.731873
2008-02-07 16:30:46 51°19.974 2°53.306 -999 0.026669 0.172765 -1.731873
2008-02-07 16:31:46 51°19.778 2°53.229 -999 0.026875 0.174188 -1.766697
2008-02-07 16:32:46 51°19.586 2°53.128 -999 0.02811 0.182367 -1.731873
2008-02-07 16:33:46 51°19.389 2°53.098 -999 0.024097 0.155664 -1.766697
2008-02-07 16:34:46 51°19.191 2°53.051 -999 0.028419 0.184446 -1.731873
2008-02-07 16:35:46 51°18.992 2°53.066 -999 0.025435 0.164268 -1.766697
2008-02-07 16:36:46 51°18.794 2°53.033 -999 0.029654 0.192333 -1.731873
2008-02-07 16:37:46 51°18.615 2°52.949 -999 0.030271 0.196188 -1.731873
2008-02-07 16:38:46 51°18.46 2°52.877 -999 0.02492 0.160493 -1.766697
2008-02-07 16:39:46 51°18.31 2°52.803 -999 0.028007 0.18064 -1.731873
2008-02-07 16:40:46 51°18.159 2°52.738 -999 0.027801 0.179093 -1.766697
2008-02-07 16:41:46 51°17.988 2°52.679 -999 0.026258 0.168926 -1.731873
2008-02-07 16:42:46 51°17.799 2°52.629 -999 0.026258 0.168683 -1.731873
2008-02-07 16:43:46 51°17.605 2°52.605 -999 0.024508 0.156964 -1.731873
2008-02-07 16:44:46 51°17.411 2°52.591 -999 0.027801 0.178708 -1.731873
2008-02-07 16:45:46 51°17.217 2°52.596 -999 0.025949 0.166557 -1.731873
2008-02-07 16:46:46 51°17.028 2°52.653 -999 0.024817 0.15892 -1.766697
2008-02-07 16:47:46 51°16.84 2°52.733 -999 0.025743 0.164925 -1.766697
2008-02-07 16:48:46 51°16.652 2°52.839 -999 0.026464 0.16941 -1.766697
2008-02-07 16:49:46 51°16.456 2°52.931 -999 0.027081 0.173473 -1.766697
2008-02-07 16:50:46 51°16.263 2°53.035 -999 0.02739 0.175256 -1.766697
2008-02-07 16:51:46 51°16.076 2°53.161 -999 0.025435 0.162286 -1.766697
2008-02-07 16:52:46 51°15.889 2°53.285 -999 0.026772 0.171036 -1.731873
2008-02-07 16:53:46 51°15.704 2°53.416 -999 0.025229 0.160763 -1.766697
2008-02-07 16:54:46 51°15.52 2°53.552 -999 0.026258 0.167383 -1.731873
2008-02-07 16:55:46 51°15.334 2°53.682 -999 0.02739 0.174707 -1.766697
2008-02-07 16:56:46 51°15.155 2°53.833 -999 0.024303 0.154408 -1.731873
2008-02-07 16:57:46 51°14.991 2°54.014 -999 0.023891 0.151575 -1.731873
2008-02-07 16:58:46 51°14.917 2°54.15 -999 0.025949 0.164957 -1.731873
2008-02-07 16:59:46 51°14.916 2°54.232 -999 0.029139 0.185658 -1.731873
2008-02-07 17:00:46 51°14.927 2°54.283 -999 0.030889 0.19697 -1.731873
2008-02-07 17:01:46 51°14.937 2°54.318 -999 0.029242 0.186067 -1.731873
2008-02-07 17:02:46 51°14.943 2°54.341 -999 0.026258 0.166519 -1.766697
2008-02-07 17:03:46 51°14.948 2°54.357 -999 0.027287 0.173089 -1.766697
2008-02-07 17:04:46 51°14.952 2°54.365 -999 0.027904 0.176959 -1.731873
2008-02-07 17:05:46 51°14.955 2°54.37 -999 0.025023 0.158211 -1.731873
2008-02-07 17:06:46 51°14.958 2°54.371 -999 0.026052 0.16472 -1.766697
2008-02-07 17:07:46 51°14.96 2°54.369 -999 0.025846 0.163332 -1.731873
2008-02-07 17:08:46 51°14.961 2°54.368 -999 0.027287 0.172469 -1.731873
2008-02-07 17:09:46 51°14.962 2°54.365 -999 0.028625 0.180968 -1.766697
2008-02-07 17:10:46 51°14.963 2°54.361 -999 0.026155 0.164862 -1.766697
2008-02-07 17:11:46 51°14.964 2°54.357 -999 0.026464 0.166819 -1.766697
2008-02-07 17:12:46 51°14.964 2°54.352 -999 0.026772 0.168692 -1.766697
2008-02-07 17:13:46 51°14.964 2°54.35 -999 0.027596 0.173836 -1.731873
2008-02-07 17:14:46 51°14.949 2°54.377 -999 0.025743 0.161854 -1.766697
2008-02-07 17:15:46 51°14.912 2°54.426 -999 0.028007 0.176207 -1.766697
2008-02-07 17:16:46 51°14.851 2°54.499 -999 0.026772 0.168098 -1.766697
2008-02-07 17:17:46 51°14.739 2°54.61 -999 0.026566 0.166734 -1.731873
2008-02-07 17:18:46 51°14.583 2°54.758 -999 0.023582 0.147453 -1.766697
2008-02-07 17:19:46 51°14.434 2°54.954 -999 0.024302 0.151862 -1.731873
2008-02-07 17:20:46 51°14.303 2°55.187 -999 0.022965 0.143384 -1.766697
2008-02-07 17:21:46 51°14.171 2°55.368 -999 0.025229 0.157664 -1.766697
2008-02-07 17:22:50 51°14.044 2°55.469 -999 0.026875 0.168157 -1.731873
2008-02-07 17:23:49 51°13.956 2°55.534 -999 0.02739 0.17143 -1.766697
2008-02-07 17:24:50 51°13.868 2°55.598 -999 0.02739 0.171309 -1.766697
2008-02-07 17:25:49 51°13.79 2°55.666 -999 0.027904 0.17447 -1.766697
2008-02-07 17:26:50 51°13.729 2°55.752 -999 0.028316 0.176983 -1.731873
2008-02-07 17:27:50 51°13.684 2°55.843 -999 0.028419 0.177537 -1.766697
2008-02-07 17:28:50 51°13.669 2°55.924 -999 0.027081 0.168849 -1.766697
2008-02-07 17:29:50 51°13.664 2°55.953 -999 0.02883 0.179973 -1.766697